createdAt,value
2023-05-21T00:01:06.563Z,18.84
2023-05-21T00:03:33.946Z,18.72
2023-05-21T00:06:01.732Z,18.75
2023-05-21T00:08:28.700Z,18.70
2023-05-21T00:10:55.754Z,18.66
2023-05-21T00:13:22.446Z,18.67
2023-05-21T00:15:49.126Z,18.60
2023-05-21T00:18:16.331Z,18.60
2023-05-21T00:20:43.014Z,18.56
2023-05-21T00:23:10.306Z,18.51
2023-05-21T00:25:37.157Z,18.49
2023-05-21T00:28:04.073Z,18.45
2023-05-21T00:30:30.645Z,18.43
2023-05-21T00:32:58.847Z,18.42
2023-05-21T00:35:25.646Z,18.34
2023-05-21T00:37:54.012Z,18.28
2023-05-21T00:40:21.076Z,18.33
2023-05-21T00:42:48.153Z,18.29
2023-05-21T00:45:17.941Z,18.35
2023-05-21T00:47:45.975Z,18.35
2023-05-21T00:50:15.180Z,18.28
2023-05-21T00:52:44.062Z,18.35
2023-05-21T00:55:11.072Z,18.28
2023-05-21T00:57:40.852Z,18.30
2023-05-21T01:00:09.064Z,18.31
2023-05-21T01:02:37.470Z,18.32
2023-05-21T01:05:06.281Z,18.33
2023-05-21T01:07:35.999Z,18.40
2023-05-21T01:10:10.416Z,18.37
2023-05-21T01:12:42.162Z,18.28
2023-05-21T01:15:11.545Z,18.12
2023-05-21T01:17:39.188Z,18.04
2023-05-21T01:20:12.677Z,17.97
2023-05-21T01:22:44.038Z,17.85
2023-05-21T01:25:11.210Z,17.81
2023-05-21T01:27:37.910Z,17.83
2023-05-21T01:30:05.092Z,17.81
2023-05-21T01:32:35.150Z,17.71
2023-05-21T01:35:17.548Z,17.63
2023-05-21T01:37:57.780Z,17.64
2023-05-21T01:40:52.243Z,17.64
2023-05-21T01:43:20.081Z,17.55
2023-05-21T01:45:47.712Z,17.45
2023-05-21T01:48:17.468Z,17.41
2023-05-21T01:50:50.134Z,17.42
2023-05-21T01:53:17.406Z,17.39
2023-05-21T01:55:47.070Z,17.39
2023-05-21T01:58:14.032Z,17.31
2023-05-21T02:00:40.684Z,17.30
2023-05-21T02:03:11.459Z,17.33
2023-05-21T02:05:38.434Z,17.32
2023-05-21T02:08:05.566Z,17.30
2023-05-21T02:10:32.197Z,17.31
2023-05-21T02:12:59.343Z,17.29
2023-05-21T02:15:26.142Z,17.30
2023-05-21T02:17:55.821Z,17.28
2023-05-21T02:20:22.957Z,17.24
2023-05-21T02:22:49.890Z,17.23
2023-05-21T02:25:19.718Z,17.16
2023-05-21T02:27:47.114Z,17.16
2023-05-21T02:30:15.663Z,17.18
2023-05-21T02:32:43.689Z,17.14
2023-05-21T02:35:12.392Z,17.09
2023-05-21T02:37:44.205Z,17.09
2023-05-21T02:40:12.043Z,17.07
2023-05-21T02:42:40.259Z,17.07
2023-05-21T02:45:11.623Z,17.07
2023-05-21T02:47:38.992Z,17.12
2023-05-21T02:50:07.684Z,17.08
2023-05-21T02:52:37.094Z,17.11
2023-05-21T02:55:04.257Z,17.05
2023-05-21T02:57:30.896Z,17.11
2023-05-21T02:59:57.534Z,17.09
2023-05-21T03:02:24.380Z,17.06
2023-05-21T03:04:51.667Z,17.05
2023-05-21T03:07:20.017Z,17.06
2023-05-21T03:09:47.082Z,16.97
2023-05-21T03:12:13.862Z,17.00
2023-05-21T03:14:44.210Z,16.99
2023-05-21T03:17:14.092Z,17.03
2023-05-21T03:19:44.250Z,17.04
2023-05-21T03:22:11.446Z,17.03
2023-05-21T03:24:39.325Z,17.06
2023-05-21T03:27:08.698Z,17.06
2023-05-21T03:29:35.457Z,17.06
2023-05-21T03:32:02.442Z,17.07
2023-05-21T03:34:29.141Z,17.08
2023-05-21T03:36:57.969Z,17.11
2023-05-21T03:39:24.602Z,17.13
2023-05-21T03:41:51.664Z,17.20
2023-05-21T03:44:20.522Z,17.19
2023-05-21T03:46:47.185Z,17.21
2023-05-21T03:49:14.392Z,17.23
2023-05-21T03:51:40.990Z,17.24
2023-05-21T03:54:10.602Z,17.30
2023-05-21T03:56:37.214Z,17.29
2023-05-21T03:59:04.072Z,17.28
2023-05-21T04:01:32.988Z,17.31
2023-05-21T04:03:59.669Z,17.31
2023-05-21T04:06:26.389Z,17.27
2023-05-21T04:08:55.954Z,17.28
2023-05-21T04:11:22.796Z,17.28
2023-05-21T04:13:52.972Z,17.31
2023-05-21T04:16:19.647Z,17.30
2023-05-21T04:18:46.960Z,17.32
2023-05-21T04:21:16.984Z,17.31
2023-05-21T04:23:43.715Z,17.34
2023-05-21T04:26:10.350Z,17.35
2023-05-21T04:28:36.952Z,17.34
2023-05-21T04:31:06.420Z,17.39
2023-05-21T04:33:33.006Z,17.38
2023-05-21T04:35:59.679Z,17.41
2023-05-21T04:38:26.343Z,17.47
2023-05-21T04:40:53.367Z,17.47
2023-05-21T04:43:27.470Z,17.49
2023-05-21T04:45:57.212Z,17.52
2023-05-21T04:48:25.017Z,17.55
2023-05-21T04:50:55.907Z,17.59
2023-05-21T04:53:25.110Z,17.61
2023-05-21T04:55:51.793Z,17.65
2023-05-21T04:58:19.321Z,17.73
2023-05-21T05:00:50.944Z,17.83
2023-05-21T05:03:18.017Z,18.01
2023-05-21T05:05:44.780Z,18.18
2023-05-21T05:08:13.854Z,18.44
2023-05-21T05:10:42.066Z,18.64
2023-05-21T05:13:08.958Z,18.76
2023-05-21T05:15:35.859Z,18.77
2023-05-21T05:18:05.612Z,18.80
2023-05-21T05:20:32.300Z,18.89
2023-05-21T05:22:58.928Z,19.08
2023-05-21T05:25:25.720Z,19.30
2023-05-21T05:27:52.439Z,19.51
2023-05-21T05:30:19.134Z,19.76
2023-05-21T05:32:46.691Z,20.05
2023-05-21T05:35:13.412Z,20.44
2023-05-21T05:37:40.192Z,21.00
2023-05-21T05:40:08.166Z,21.41
2023-05-21T05:42:34.807Z,21.81
2023-05-21T05:45:01.479Z,22.15
2023-05-21T05:47:30.656Z,22.41
2023-05-21T05:49:57.329Z,22.59
2023-05-21T05:52:23.921Z,22.73
2023-05-21T05:54:50.782Z,22.88
2023-05-21T05:57:17.533Z,22.93
2023-05-21T05:59:44.256Z,23.09
2023-05-21T06:02:11.000Z,23.12
2023-05-21T06:04:37.622Z,23.32
2023-05-21T06:07:08.384Z,23.48
2023-05-21T06:09:38.995Z,23.67
2023-05-21T06:12:10.744Z,23.84
2023-05-21T06:14:39.032Z,23.85
2023-05-21T06:17:08.458Z,24.01
2023-05-21T06:19:35.254Z,24.06
2023-05-21T06:22:02.018Z,24.18
2023-05-21T06:24:28.687Z,24.22
2023-05-21T06:26:55.319Z,24.38
2023-05-21T06:29:22.007Z,24.53
2023-05-21T06:31:48.940Z,24.72
2023-05-21T06:34:15.768Z,24.88
2023-05-21T06:36:42.398Z,24.96
2023-05-21T06:39:09.067Z,25.06
2023-05-21T06:41:35.880Z,25.15
2023-05-21T06:44:02.628Z,25.35
2023-05-21T06:46:29.399Z,25.41
2023-05-21T06:48:56.122Z,25.66
2023-05-21T06:51:22.918Z,25.82
2023-05-21T06:53:49.656Z,26.03
2023-05-21T06:56:16.303Z,26.20
2023-05-21T06:58:43.057Z,26.43
2023-05-21T07:01:09.707Z,26.61
2023-05-21T07:03:36.778Z,26.79
2023-05-21T07:06:03.634Z,26.93
2023-05-21T07:08:30.371Z,27.08
2023-05-21T07:10:57.002Z,27.26
2023-05-21T07:13:23.639Z,27.39
2023-05-21T07:15:50.320Z,27.49
2023-05-21T07:18:17.029Z,27.65
2023-05-21T07:20:46.686Z,27.80
2023-05-21T07:23:13.320Z,27.92
2023-05-21T07:25:42.264Z,28.05
2023-05-21T07:28:08.976Z,28.17
2023-05-21T07:30:35.658Z,28.24
2023-05-21T07:33:04.354Z,28.37
2023-05-21T07:35:31.593Z,28.48
2023-05-21T07:37:58.321Z,28.59
2023-05-21T07:40:27.490Z,28.73
2023-05-21T07:42:54.134Z,28.84
2023-05-21T07:45:20.931Z,28.96
2023-05-21T07:47:47.673Z,29.07
2023-05-21T07:50:15.029Z,29.17
2023-05-21T07:52:41.774Z,29.27
2023-05-21T07:55:10.168Z,29.40
2023-05-21T07:57:37.006Z,29.48
2023-05-21T08:00:09.752Z,29.61
2023-05-21T08:02:36.731Z,29.68
2023-05-21T08:05:06.995Z,29.74
2023-05-21T08:07:33.716Z,29.76
2023-05-21T08:10:02.321Z,29.75
2023-05-21T08:12:29.621Z,29.70
2023-05-21T08:14:58.257Z,29.70
2023-05-21T08:17:25.121Z,29.72
2023-05-21T08:19:51.912Z,29.72
2023-05-21T08:22:18.615Z,29.65
2023-05-21T08:24:45.231Z,29.70
2023-05-21T08:27:11.920Z,29.65
2023-05-21T08:29:38.532Z,29.66
2023-05-21T08:32:05.793Z,29.61
2023-05-21T08:34:32.548Z,29.63
2023-05-21T08:36:59.135Z,29.62
2023-05-21T08:39:26.025Z,29.58
2023-05-21T08:42:02.901Z,29.58
2023-05-21T08:44:34.013Z,29.58
2023-05-21T08:47:04.087Z,29.63
2023-05-21T08:49:36.806Z,29.55
2023-05-21T08:52:04.902Z,29.54
2023-05-21T08:54:31.652Z,29.52
2023-05-21T08:57:02.509Z,29.49
2023-05-21T08:59:32.294Z,29.46
2023-05-21T09:02:02.157Z,29.40
2023-05-21T09:04:29.273Z,29.33
2023-05-21T09:06:58.055Z,29.29
2023-05-21T09:09:49.876Z,29.25
2023-05-21T09:12:16.916Z,29.27
2023-05-21T09:14:43.732Z,29.29
2023-05-21T09:17:15.953Z,29.26
2023-05-21T09:20:17.647Z,29.20
2023-05-21T09:22:46.253Z,29.20
2023-05-21T09:25:15.516Z,29.15
2023-05-21T09:27:42.350Z,29.09
2023-05-21T09:30:14.591Z,29.09
2023-05-21T09:32:41.909Z,29.08
2023-05-21T09:35:13.932Z,29.13
2023-05-21T09:37:44.069Z,29.15
2023-05-21T09:40:15.338Z,29.15
2023-05-21T09:42:45.591Z,29.14
2023-05-21T09:45:18.887Z,29.06
2023-05-21T09:47:46.434Z,28.99
2023-05-21T09:50:19.960Z,28.98
2023-05-21T09:52:47.288Z,28.92
2023-05-21T09:55:17.873Z,28.95
2023-05-21T09:57:48.057Z,29.05
2023-05-21T10:00:23.188Z,29.09
2023-05-21T10:02:54.680Z,29.08
2023-05-21T10:05:26.161Z,29.07
2023-05-21T10:07:56.308Z,29.04
2023-05-21T10:10:23.896Z,29.04
2023-05-21T10:13:00.234Z,29.02
2023-05-21T10:15:28.609Z,29.01
2023-05-21T10:17:56.495Z,29.00
2023-05-21T10:20:23.522Z,28.94
2023-05-21T10:22:50.844Z,28.96
2023-05-21T10:25:17.668Z,28.91
2023-05-21T10:27:46.290Z,28.93
2023-05-21T10:30:14.343Z,28.89
2023-05-21T10:32:44.325Z,28.87
2023-05-21T10:35:12.946Z,28.85
2023-05-21T10:37:40.404Z,28.90
2023-05-21T10:40:07.728Z,28.93
2023-05-21T10:42:34.257Z,28.99
2023-05-21T10:45:28.775Z,28.98
2023-05-21T10:48:33.472Z,29.01
2023-05-21T10:51:45.351Z,29.04
2023-05-21T10:54:36.218Z,29.08
2023-05-21T10:57:08.413Z,29.11
2023-05-21T10:59:47.288Z,29.11
2023-05-21T11:02:18.650Z,29.16
2023-05-21T11:04:45.767Z,29.11
2023-05-21T11:07:12.872Z,29.13
2023-05-21T11:09:39.568Z,29.11
2023-05-21T11:12:08.229Z,29.10
2023-05-21T11:14:40.493Z,29.03
2023-05-21T11:17:12.658Z,29.03
2023-05-21T11:19:47.145Z,29.00
2023-05-21T11:22:22.830Z,28.95
2023-05-21T11:24:51.385Z,28.95
2023-05-21T11:27:41.424Z,28.91
2023-05-21T11:30:10.486Z,28.91
2023-05-21T11:32:39.188Z,28.84
2023-05-21T11:35:06.908Z,28.86
2023-05-21T11:37:34.966Z,28.87
2023-05-21T11:40:23.924Z,28.82
2023-05-21T11:42:52.854Z,28.87
2023-05-21T11:45:21.138Z,28.92
2023-05-21T11:47:49.469Z,28.92
2023-05-21T11:50:17.485Z,28.92
2023-05-21T11:52:45.434Z,28.91
2023-05-21T11:55:21.177Z,28.91
2023-05-21T11:57:48.802Z,28.90
2023-05-21T12:00:16.860Z,28.92
2023-05-21T12:02:50.348Z,28.92
2023-05-21T12:05:17.396Z,28.92
2023-05-21T12:07:48.708Z,28.93
2023-05-21T12:10:21.220Z,28.94
2023-05-21T12:12:54.683Z,28.96
2023-05-21T12:15:22.835Z,28.97
2023-05-21T12:17:52.811Z,28.95
2023-05-21T12:20:20.120Z,28.97
2023-05-21T12:22:49.076Z,28.99
2023-05-21T12:25:20.200Z,29.03
2023-05-21T12:27:58.018Z,29.05
2023-05-21T12:30:26.088Z,28.99
2023-05-21T12:32:54.009Z,29.07
2023-05-21T12:35:23.063Z,29.12
2023-05-21T12:37:53.269Z,29.18
2023-05-21T12:40:20.120Z,29.20
2023-05-21T12:42:46.874Z,29.18
2023-05-21T12:45:14.136Z,29.18
2023-05-21T12:47:40.933Z,29.20
2023-05-21T12:50:14.125Z,29.17
2023-05-21T12:52:43.223Z,29.13
2023-05-21T12:55:17.121Z,29.09
2023-05-21T12:57:44.038Z,28.99
2023-05-21T13:00:11.481Z,28.95
2023-05-21T13:02:43.870Z,28.87
2023-05-21T13:05:21.341Z,28.59
2023-05-21T13:07:48.247Z,28.29
2023-05-21T13:10:18.624Z,28.08
2023-05-21T13:12:50.118Z,27.92
2023-05-21T13:15:17.023Z,27.83
2023-05-21T13:17:48.475Z,27.72
2023-05-21T13:20:21.890Z,27.71
2023-05-21T13:22:51.128Z,27.48
2023-05-21T13:25:21.328Z,27.15
2023-05-21T13:27:49.841Z,27.05
2023-05-21T13:30:16.726Z,26.98
2023-05-21T13:32:43.613Z,26.89
2023-05-21T13:35:12.105Z,26.78
2023-05-21T13:37:40.354Z,26.78
2023-05-21T13:40:17.026Z,26.74
2023-05-21T13:42:48.609Z,26.71
2023-05-21T13:45:18.090Z,26.70
2023-05-21T13:47:46.051Z,26.58
2023-05-21T13:50:15.950Z,26.56
2023-05-21T13:52:42.721Z,26.40
2023-05-21T13:55:10.576Z,26.36
2023-05-21T13:57:37.271Z,26.23
2023-05-21T14:00:04.942Z,26.08
2023-05-21T14:02:31.684Z,25.98
2023-05-21T14:04:58.381Z,25.86
2023-05-21T14:07:25.056Z,25.77
2023-05-21T14:09:52.436Z,25.62
2023-05-21T14:12:19.185Z,25.46
2023-05-21T14:14:46.123Z,25.31
2023-05-21T14:17:12.750Z,25.22
2023-05-21T14:19:39.418Z,25.09
2023-05-21T14:22:06.232Z,24.99
2023-05-21T14:24:32.989Z,24.93
2023-05-21T14:26:59.613Z,24.91
2023-05-21T14:29:26.256Z,24.84
2023-05-21T14:31:52.932Z,24.75
2023-05-21T14:34:19.645Z,24.72
2023-05-21T14:36:46.277Z,24.65
2023-05-21T14:39:12.997Z,24.65
2023-05-21T14:41:39.926Z,24.59
2023-05-21T14:44:06.802Z,24.57
2023-05-21T14:46:40.788Z,24.56
2023-05-21T14:49:07.573Z,24.50
2023-05-21T14:51:34.448Z,24.44
2023-05-21T14:54:01.376Z,24.41
2023-05-21T14:56:28.290Z,24.39
2023-05-21T14:58:55.249Z,24.38
2023-05-21T15:01:22.170Z,24.32
2023-05-21T15:03:49.244Z,24.19
2023-05-21T15:06:16.127Z,24.13
2023-05-21T15:08:42.832Z,23.99
2023-05-21T15:11:10.177Z,23.91
2023-05-21T15:13:37.016Z,23.83
2023-05-21T15:16:04.034Z,23.67
2023-05-21T15:18:30.666Z,23.66
2023-05-21T15:20:58.293Z,23.57
2023-05-21T15:23:26.495Z,23.49
2023-05-21T15:25:53.265Z,23.41
2023-05-21T15:28:19.948Z,23.33
2023-05-21T15:30:46.578Z,23.27
2023-05-21T15:33:13.195Z,23.19
2023-05-21T15:35:40.091Z,23.07
2023-05-21T15:38:07.051Z,23.06
2023-05-21T15:40:35.663Z,23.01
2023-05-21T15:43:02.429Z,22.92
2023-05-21T15:45:31.899Z,22.90
2023-05-21T15:47:58.583Z,22.89
2023-05-21T15:50:28.251Z,22.81
2023-05-21T15:52:56.942Z,22.74
2023-05-21T15:55:23.641Z,22.60
2023-05-21T15:57:50.320Z,22.50
2023-05-21T16:00:17.015Z,22.45
2023-05-21T16:02:43.795Z,22.43
2023-05-21T16:05:10.618Z,22.43
2023-05-21T16:07:38.358Z,22.40
2023-05-21T16:10:06.341Z,22.36
2023-05-21T16:12:33.051Z,22.32
2023-05-21T16:14:59.733Z,22.24
2023-05-21T16:17:28.378Z,22.27
2023-05-21T16:19:55.057Z,22.20
2023-05-21T16:22:24.680Z,22.19
2023-05-21T16:24:51.334Z,22.11
2023-05-21T16:27:18.159Z,22.03
2023-05-21T16:29:44.944Z,21.96
2023-05-21T16:32:13.837Z,21.90
2023-05-21T16:34:40.861Z,21.87
2023-05-21T16:37:09.755Z,21.84
2023-05-21T16:39:37.088Z,21.74
2023-05-21T16:42:04.005Z,21.77
2023-05-21T16:44:32.066Z,21.68
2023-05-21T16:47:00.078Z,21.67
2023-05-21T16:49:27.527Z,21.66
2023-05-21T16:51:54.326Z,21.58
2023-05-21T16:54:21.183Z,21.55
2023-05-21T16:56:47.797Z,21.39
2023-05-21T16:59:14.395Z,21.37
2023-05-21T17:01:41.092Z,21.41
2023-05-21T17:04:07.865Z,21.27
2023-05-21T17:06:35.021Z,21.19
2023-05-21T17:09:02.421Z,21.11
2023-05-21T17:11:30.786Z,21.17
2023-05-21T17:13:57.435Z,21.12
2023-05-21T17:16:25.072Z,21.07
2023-05-21T17:18:52.054Z,21.03
2023-05-21T17:21:19.451Z,21.08
2023-05-21T17:23:47.858Z,21.01
2023-05-21T17:26:14.587Z,20.96
2023-05-21T17:28:41.261Z,20.98
2023-05-21T17:31:08.988Z,20.95
2023-05-21T17:33:37.380Z,20.96
2023-05-21T17:36:04.284Z,20.93
2023-05-21T17:38:31.021Z,20.91
2023-05-21T17:41:03.559Z,20.86
2023-05-21T17:43:32.033Z,20.78
2023-05-21T17:45:58.819Z,20.76
2023-05-21T17:48:25.853Z,20.72
2023-05-21T17:50:54.759Z,20.65
2023-05-21T17:53:22.038Z,20.66
2023-05-21T17:55:48.654Z,20.69
2023-05-21T17:58:15.778Z,20.67
2023-05-21T18:00:42.443Z,20.62
2023-05-21T18:03:09.088Z,20.59
2023-05-21T18:05:36.544Z,20.55
2023-05-21T18:08:05.850Z,20.51
2023-05-21T18:10:32.511Z,20.54
2023-05-21T18:12:59.175Z,20.43
2023-05-21T18:15:25.831Z,20.37
2023-05-21T18:17:52.576Z,20.33
2023-05-21T18:20:19.367Z,20.27
2023-05-21T18:22:46.042Z,20.25
2023-05-21T18:25:13.277Z,20.20
2023-05-21T18:27:42.126Z,20.13
2023-05-21T18:30:09.269Z,20.07
2023-05-21T18:32:38.913Z,20.05
2023-05-21T18:35:08.230Z,20.00
2023-05-21T18:37:37.548Z,20.00
2023-05-21T18:40:05.999Z,20.03
2023-05-21T18:42:32.695Z,20.03
2023-05-21T18:45:06.360Z,20.01
2023-05-21T18:47:33.087Z,19.99
2023-05-21T18:50:00.059Z,19.95
2023-05-21T18:52:26.726Z,19.93
2023-05-21T18:54:54.397Z,19.89
2023-05-21T18:57:21.069Z,19.83
2023-05-21T18:59:48.272Z,19.79
2023-05-21T19:02:14.988Z,19.76
2023-05-21T19:04:41.694Z,19.72
2023-05-21T19:07:10.934Z,19.70
2023-05-21T19:09:37.753Z,19.67
2023-05-21T19:12:04.734Z,19.64
2023-05-21T19:14:31.413Z,19.64
2023-05-21T19:16:58.148Z,19.62
2023-05-21T19:19:24.824Z,19.60
2023-05-21T19:21:52.899Z,19.55
2023-05-21T19:24:19.611Z,19.54
2023-05-21T19:26:46.322Z,19.50
2023-05-21T19:29:12.974Z,19.47
2023-05-21T19:31:39.778Z,19.48
2023-05-21T19:34:10.882Z,19.43
2023-05-21T19:36:51.558Z,19.42
2023-05-21T19:39:20.025Z,19.40
2023-05-21T19:41:46.771Z,19.41
2023-05-21T19:44:13.434Z,19.41
2023-05-21T19:46:40.191Z,19.37
2023-05-21T19:49:06.966Z,19.38
2023-05-21T19:51:33.710Z,19.37
2023-05-21T19:54:00.311Z,19.39
2023-05-21T19:56:26.960Z,19.37
2023-05-21T19:58:53.618Z,19.35
2023-05-21T20:01:21.787Z,19.30
2023-05-21T20:03:49.673Z,19.29
2023-05-21T20:06:18.996Z,19.17
2023-05-21T20:08:45.853Z,19.12
2023-05-21T20:11:12.625Z,19.06
2023-05-21T20:13:40.753Z,19.00
2023-05-21T20:16:07.607Z,18.92
2023-05-21T20:18:36.668Z,18.91
2023-05-21T20:21:06.449Z,18.89
2023-05-21T20:23:33.192Z,18.86
2023-05-21T20:25:59.840Z,18.78
2023-05-21T20:28:26.487Z,18.76
2023-05-21T20:30:57.643Z,18.74
2023-05-21T20:33:25.603Z,18.63
2023-05-21T20:35:52.316Z,18.68
2023-05-21T20:38:21.088Z,18.74
2023-05-21T20:40:48.355Z,18.77
2023-05-21T20:43:15.336Z,18.76
2023-05-21T20:45:42.069Z,18.68
2023-05-21T20:48:09.994Z,18.70
2023-05-21T20:50:37.608Z,18.72
2023-05-21T20:53:04.570Z,18.75
2023-05-21T20:55:34.902Z,18.78
2023-05-21T20:58:04.792Z,18.78
2023-05-21T21:00:33.444Z,18.74
2023-05-21T21:03:03.238Z,18.78
2023-05-21T21:05:29.941Z,18.78
2023-05-21T21:07:56.742Z,18.74
2023-05-21T21:10:23.364Z,18.75
2023-05-21T21:12:50.106Z,18.70
2023-05-21T21:15:16.919Z,18.73
2023-05-21T21:17:43.730Z,18.72
2023-05-21T21:20:12.848Z,18.68
2023-05-21T21:22:39.780Z,18.72
2023-05-21T21:25:06.749Z,18.70
2023-05-21T21:27:34.628Z,18.73
2023-05-21T21:30:01.339Z,18.74
2023-05-21T21:32:28.190Z,18.79
2023-05-21T21:34:54.807Z,18.77
2023-05-21T21:37:21.446Z,18.70
2023-05-21T21:39:48.112Z,18.62
2023-05-21T21:42:15.015Z,18.54
2023-05-21T21:44:42.291Z,18.41
2023-05-21T21:47:08.959Z,18.40
2023-05-21T21:49:35.726Z,18.38
2023-05-21T21:52:02.613Z,18.41
2023-05-21T21:54:29.353Z,18.42
2023-05-21T21:56:55.990Z,18.44
2023-05-21T21:59:22.704Z,18.45
2023-05-21T22:01:49.793Z,18.46
2023-05-21T22:04:16.686Z,18.47
2023-05-21T22:06:45.403Z,18.51
2023-05-21T22:09:12.785Z,18.52
2023-05-21T22:11:39.726Z,18.52
2023-05-21T22:14:06.518Z,18.53
2023-05-21T22:16:34.088Z,18.56
2023-05-21T22:19:01.396Z,18.56
2023-05-21T22:21:29.393Z,18.55
2023-05-21T22:23:56.358Z,18.55
2023-05-21T22:26:23.364Z,18.55
2023-05-21T22:28:50.581Z,18.52
2023-05-21T22:31:17.587Z,18.58
2023-05-21T22:33:44.316Z,18.54
2023-05-21T22:36:11.094Z,18.57
2023-05-21T22:38:37.961Z,18.59
2023-05-21T22:41:08.669Z,18.57
2023-05-21T22:43:35.659Z,18.55
2023-05-21T22:46:02.469Z,18.53
2023-05-21T22:48:32.189Z,18.45
2023-05-21T22:51:02.007Z,18.42
2023-05-21T22:53:28.689Z,18.39
2023-05-21T22:55:55.311Z,18.35
2023-05-21T22:58:21.920Z,18.39
2023-05-21T23:00:48.612Z,18.39
2023-05-21T23:03:18.092Z,18.38
2023-05-21T23:05:45.543Z,18.32
2023-05-21T23:08:12.670Z,18.37
2023-05-21T23:10:39.614Z,18.37
2023-05-21T23:13:06.539Z,18.39
2023-05-21T23:15:33.813Z,18.36
2023-05-21T23:18:00.648Z,18.34
2023-05-21T23:20:27.821Z,18.33
2023-05-21T23:22:54.461Z,18.32
2023-05-21T23:25:21.243Z,18.35
2023-05-21T23:27:47.923Z,18.27
2023-05-21T23:30:14.729Z,18.25
2023-05-21T23:32:41.432Z,18.25
2023-05-21T23:35:09.440Z,18.24
2023-05-21T23:37:36.190Z,18.17
2023-05-21T23:40:03.042Z,18.09
2023-05-21T23:42:29.778Z,17.99
2023-05-21T23:44:56.436Z,17.98
2023-05-21T23:47:25.741Z,17.93
2023-05-21T23:49:52.647Z,17.90
2023-05-21T23:52:19.454Z,17.93
2023-05-21T23:54:46.117Z,17.95
2023-05-21T23:57:13.377Z,17.92
2023-05-21T23:59:40.055Z,17.95
